Time;durP1;ratioP1;P1;durP2;ratioP2;P2;SDS_P1;SDS_P2;PMS_P1;PMS_P2;Temp;Humidity;BMP_temperature;BMP_pressure;BME280_temperature;BME280_humidity;BME280_pressure;Samples;Min_cycle;Max_cycle;Signal;HPM_P1;HPM_P2
2023/05/29 00:01:26;;;;;;;7.63;3.03;;;13.90;68.50;;;;;;5023998;28;20056;-78
2023/05/29 00:03:52;;;;;;;6.65;3.40;;;13.80;68.40;;;;;;5023852;28;20072;-78
2023/05/29 00:06:21;;;;;;;4.93;2.80;;;13.90;68.00;;;;;;5024810;28;20064;-78
2023/05/29 00:08:46;;;;;;;14.50;3.53;;;13.90;69.00;;;;;;5024157;28;20026;-78
2023/05/29 00:11:12;;;;;;;5.32;3.17;;;13.90;69.10;;;;;;5026003;28;20370;-78
2023/05/29 00:13:38;;;;;;;4.03;2.58;;;13.70;68.30;;;;;;5025891;28;20034;-78
2023/05/29 00:16:04;;;;;;;8.88;2.88;;;13.80;69.90;;;;;;4992519;28;20099;-78
2023/05/29 00:18:30;;;;;;;5.95;3.20;;;13.70;69.30;;;;;;5026060;28;20025;-78
2023/05/29 00:20:55;;;;;;;6.55;2.42;;;13.80;71.10;;;;;;5009015;28;20034;-78
2023/05/29 00:23:21;;;;;;;3.67;3.10;;;13.70;68.90;;;;;;5002811;28;20482;-78
2023/05/29 00:25:47;;;;;;;4.88;3.15;;;13.60;68.70;;;;;;5009795;28;20030;-78
2023/05/29 00:28:12;;;;;;;5.18;3.17;;;13.50;69.40;;;;;;5008125;28;20179;-77
2023/05/29 00:30:38;;;;;;;4.38;3.15;;;13.30;71.60;;;;;;5025729;28;20034;-78
2023/05/29 00:33:04;;;;;;;5.65;2.60;;;13.20;72.90;;;;;;5025507;28;20034;-78
2023/05/29 00:35:30;;;;;;;4.82;2.42;;;13.20;73.70;;;;;;5021382;28;20037;-78
2023/05/29 00:37:55;;;;;;;6.30;2.80;;;13.20;73.20;;;;;;5022339;28;20030;-77
2023/05/29 00:40:21;;;;;;;10.40;3.05;;;13.10;72.90;;;;;;5024435;28;20113;-77
2023/05/29 00:42:46;;;;;;;5.32;3.10;;;13.10;73.30;;;;;;5005433;28;20463;-78
2023/05/29 00:45:13;;;;;;;6.68;3.38;;;13.00;74.00;;;;;;5005724;28;20094;-78
2023/05/29 00:47:40;;;;;;;4.60;2.45;;;12.90;74.20;;;;;;5007640;28;20737;-78
2023/05/29 00:50:06;;;;;;;6.05;2.72;;;13.00;73.20;;;;;;5002359;28;20045;-78
2023/05/29 00:52:31;;;;;;;5.53;3.03;;;13.00;72.40;;;;;;5025404;28;20022;-78
2023/05/29 00:54:57;;;;;;;6.85;3.15;;;12.80;73.90;;;;;;5019159;28;20051;-78
2023/05/29 00:57:23;;;;;;;5.95;2.90;;;12.80;75.00;;;;;;5018988;28;20129;-78
2023/05/29 00:59:48;;;;;;;9.45;3.60;;;12.70;74.40;;;;;;5002910;28;20540;-78
2023/05/29 01:02:16;;;;;;;5.97;3.17;;;12.60;75.80;;;;;;5025285;28;20089;-77
2023/05/29 01:04:42;;;;;;;6.97;3.00;;;12.50;76.50;;;;;;5008508;28;20034;-78
2023/05/29 01:07:09;;;;;;;9.60;4.45;;;12.60;77.10;;;;;;5007107;28;20037;-78
2023/05/29 01:09:36;;;;;;;7.72;3.13;;;12.70;75.90;;;;;;5008937;28;20029;-78
2023/05/29 01:12:23;;;;;;;6.05;3.33;;;12.60;75.70;;;;;;5000016;28;20497;-78
2023/05/29 01:15:04;;;;;;;;;;;12.40;76.80;;;;;;5025905;28;20485;-78
2023/05/29 01:17:40;;;;;;;8.00;3.22;;;12.40;78.20;;;;;;5024161;28;19920;-78
2023/05/29 01:20:13;;;;;;;9.07;4.00;;;12.30;77.20;;;;;;5005493;28;20308;-78
2023/05/29 01:23:03;;;;;;;8.75;2.92;;;12.10;78.50;;;;;;5025649;28;20042;-78
2023/05/29 01:26:06;;;;;;;15.70;3.17;;;12.10;79.40;;;;;;5025339;28;20175;-77
2023/05/29 01:28:44;;;;;;;10.63;2.80;;;12.20;77.70;;;;;;5025022;28;20080;-78
2023/05/29 01:31:10;;;;;;;12.57;3.92;;;12.10;78.60;;;;;;5007186;28;20156;-78
2023/05/29 01:33:40;;;;;;;8.27;3.25;;;12.10;78.90;;;;;;5002688;28;20041;-78
2023/05/29 01:36:07;;;;;;;10.52;3.13;;;12.00;79.60;;;;;;5006281;28;20091;-78
2023/05/29 01:38:33;;;;;;;10.23;3.03;;;11.90;80.30;;;;;;5007132;28;20029;-78
2023/05/29 01:40:59;;;;;;;17.27;3.88;;;11.80;81.00;;;;;;5023382;28;20044;-78
2023/05/29 01:43:24;;;;;;;9.05;3.05;;;11.90;80.60;;;;;;5021136;28;20049;-78
2023/05/29 01:45:50;;;;;;;7.60;3.05;;;11.90;82.00;;;;;;5007500;28;20025;-78
2023/05/29 01:48:16;;;;;;;14.02;3.30;;;11.70;81.70;;;;;;5003315;28;20030;-78
2023/05/29 01:50:43;;;;;;;9.93;3.33;;;11.60;82.20;;;;;;5003040;28;20053;-78
2023/05/29 01:53:09;;;;;;;13.90;2.75;;;11.70;81.00;;;;;;5006050;28;20041;-78
2023/05/29 01:55:35;;;;;;;10.43;3.70;;;11.60;81.60;;;;;;5005783;28;20405;-79
2023/05/29 01:58:01;;;;;;;15.73;3.38;;;11.50;82.80;;;;;;5018159;28;20045;-78
2023/05/29 02:00:27;;;;;;;13.25;3.45;;;11.40;84.20;;;;;;5023028;28;20087;-78
2023/05/29 02:02:52;;;;;;;10.27;3.50;;;11.40;83.70;;;;;;5022914;28;20033;-78
2023/05/29 02:05:18;;;;;;;9.85;2.88;;;11.30;83.60;;;;;;5007718;28;20080;-78
2023/05/29 02:07:43;;;;;;;11.00;4.38;;;11.50;85.30;;;;;;5022948;28;20621;-78
2023/05/29 02:10:09;;;;;;;12.60;3.40;;;11.50;82.70;;;;;;4990360;28;20041;-79
2023/05/29 02:12:35;;;;;;;14.52;4.53;;;11.50;82.40;;;;;;5006642;28;20029;-79
2023/05/29 02:15:01;;;;;;;10.30;3.20;;;11.40;83.10;;;;;;5004531;28;20489;-78
2023/05/29 02:17:26;;;;;;;16.50;4.05;;;11.40;83.80;;;;;;5005045;28;20391;-79
2023/05/29 02:19:52;;;;;;;16.55;4.30;;;11.20;85.10;;;;;;4990788;28;20084;-78
2023/05/29 02:22:17;;;;;;;18.92;4.13;;;11.10;84.90;;;;;;5006083;28;20741;-78
2023/05/29 02:24:44;;;;;;;18.75;4.20;;;10.90;86.40;;;;;;5023625;28;20232;-78
2023/05/29 02:27:09;;;;;;;9.50;3.45;;;11.00;87.30;;;;;;5022375;28;20678;-78
2023/05/29 02:29:35;;;;;;;13.32;3.28;;;11.10;87.80;;;;;;5024015;28;20037;-76
2023/05/29 02:32:01;;;;;;;12.55;3.80;;;10.90;89.00;;;;;;5006734;28;20026;-76
2023/05/29 02:34:26;;;;;;;16.98;4.10;;;10.90;87.50;;;;;;5000884;28;20130;-76
2023/05/29 02:36:52;;;;;;;14.55;3.58;;;11.00;88.60;;;;;;5006655;28;20041;-76
2023/05/29 02:39:18;;;;;;;11.63;3.53;;;11.00;87.40;;;;;;5002997;28;20076;-76
2023/05/29 02:41:44;;;;;;;13.63;3.33;;;11.00;88.40;;;;;;5007026;28;20374;-76
2023/05/29 02:44:09;;;;;;;13.85;3.13;;;11.00;90.00;;;;;;5021431;28;20072;-77
2023/05/29 02:46:35;;;;;;;17.60;4.25;;;11.10;87.80;;;;;;5022715;28;20030;-76
2023/05/29 02:49:00;;;;;;;9.07;3.35;;;10.90;88.40;;;;;;5005796;28;20065;-76
2023/05/29 02:51:27;;;;;;;19.90;3.25;;;10.90;90.50;;;;;;5019411;28;20532;-76
2023/05/29 02:53:53;;;;;;;17.80;3.40;;;10.80;88.50;;;;;;5006575;28;20029;-76
2023/05/29 02:56:18;;;;;;;17.83;3.65;;;10.70;88.40;;;;;;5021446;28;20028;-76
2023/05/29 02:58:45;;;;;;;12.95;2.80;;;10.50;90.80;;;;;;5002796;28;20499;-76
2023/05/29 03:01:10;;;;;;;13.35;2.80;;;10.60;90.30;;;;;;5022091;28;20041;-76
2023/05/29 03:03:36;;;;;;;15.52;3.42;;;10.60;89.50;;;;;;5005915;28;20139;-76
2023/05/29 03:06:01;;;;;;;18.02;3.55;;;10.60;89.90;;;;;;4999440;28;20022;-76
2023/05/29 03:08:28;;;;;;;8.27;2.80;;;10.60;90.10;;;;;;5022313;28;20018;-77
2023/05/29 03:10:54;;;;;;;13.15;3.00;;;10.50;90.30;;;;;;5012908;28;20549;-77
2023/05/29 03:13:20;;;;;;;10.20;2.95;;;10.50;91.30;;;;;;5015974;28;20117;-77
2023/05/29 03:15:45;;;;;;;15.32;3.25;;;10.50;90.30;;;;;;5021719;28;20112;-77
2023/05/29 03:18:11;;;;;;;16.73;3.17;;;10.50;90.10;;;;;;5021741;28;20489;-77
2023/05/29 03:20:37;;;;;;;14.50;3.00;;;10.50;89.80;;;;;;5022632;28;20029;-76
2023/05/29 03:23:02;;;;;;;16.40;2.75;;;10.50;90.20;;;;;;5020648;28;20033;-77
2023/05/29 03:25:28;;;;;;;13.90;3.40;;;10.40;90.20;;;;;;5005659;28;20555;-77
2023/05/29 03:27:54;;;;;;;13.43;3.78;;;10.30;90.00;;;;;;5005183;28;20033;-77
2023/05/29 03:30:20;;;;;;;19.15;3.78;;;10.20;91.60;;;;;;5020025;28;20034;-77
2023/05/29 03:32:46;;;;;;;14.95;3.55;;;10.20;91.40;;;;;;4998715;28;20034;-77
2023/05/29 03:35:11;;;;;;;14.07;3.30;;;10.00;91.80;;;;;;5004944;28;20397;-77
2023/05/29 03:37:37;;;;;;;16.20;4.20;;;10.00;93.60;;;;;;5004152;28;20112;-77
2023/05/29 03:40:04;;;;;;;15.73;4.32;;;9.90;93.20;;;;;;4989022;28;20441;-76
2023/05/29 03:42:30;;;;;;;19.13;3.88;;;10.00;93.10;;;;;;5020958;28;20508;-78
2023/05/29 03:44:56;;;;;;;16.08;3.25;;;10.00;94.00;;;;;;5021918;28;20030;-77
2023/05/29 03:47:22;;;;;;;16.25;3.08;;;10.10;93.20;;;;;;5005545;28;20038;-78
2023/05/29 03:49:48;;;;;;;21.80;4.43;;;10.10;93.40;;;;;;5022641;28;20057;-77
2023/05/29 03:52:13;;;;;;;13.48;3.15;;;10.10;93.30;;;;;;5003885;28;20060;-78
2023/05/29 03:54:39;;;;;;;19.38;4.20;;;10.10;92.80;;;;;;5004264;28;20512;-78
2023/05/29 03:57:06;;;;;;;23.70;4.00;;;10.10;92.80;;;;;;5004793;28;20046;-77
2023/05/29 03:59:32;;;;;;;24.33;3.80;;;10.10;94.20;;;;;;5004967;28;20034;-78
2023/05/29 04:01:57;;;;;;;14.27;3.38;;;10.20;94.60;;;;;;5019977;28;20037;-78
2023/05/29 04:04:23;;;;;;;17.10;3.70;;;10.20;93.00;;;;;;5005106;28;20121;-78
2023/05/29 04:06:48;;;;;;;16.02;4.50;;;10.20;94.40;;;;;;5006448;28;20073;-78
2023/05/29 04:09:14;;;;;;;16.48;4.22;;;10.10;94.40;;;;;;5021828;28;20033;-77
2023/05/29 04:11:41;;;;;;;16.65;2.92;;;10.10;96.60;;;;;;5001896;28;20038;-77
2023/05/29 04:14:07;;;;;;;15.88;3.50;;;10.30;96.50;;;;;;4987584;28;20040;-77
2023/05/29 04:16:32;;;;;;;17.48;3.80;;;10.30;95.60;;;;;;5021702;28;20029;-77
2023/05/29 04:18:58;;;;;;;11.63;3.60;;;10.30;96.20;;;;;;4988747;28;20034;-77
2023/05/29 04:21:23;;;;;;;16.77;4.28;;;10.40;96.80;;;;;;5004363;28;20034;-77
2023/05/29 04:23:49;;;;;;;24.30;3.67;;;10.50;96.90;;;;;;5006382;28;20033;-77
2023/05/29 04:26:14;;;;;;;16.58;3.60;;;10.70;96.60;;;;;;5005385;28;20100;-78
2023/05/29 04:28:40;;;;;;;26.25;3.85;;;10.60;97.00;;;;;;5021163;28;20033;-77
2023/05/29 04:31:06;;;;;;;17.75;3.60;;;10.90;96.70;;;;;;5021400;28;20481;-76
2023/05/29 04:33:32;;;;;;;22.42;4.20;;;11.00;97.20;;;;;;4998363;28;20417;-78
2023/05/29 04:36:00;;;;;;;16.63;3.80;;;11.10;96.50;;;;;;4999793;28;20034;-76
2023/05/29 04:38:26;;;;;;;17.67;3.17;;;11.30;96.80;;;;;;5013367;28;20197;-77
2023/05/29 04:40:58;;;;;;;18.70;4.22;;;11.40;96.20;;;;;;4997169;28;20475;-77
2023/05/29 04:43:26;;;;;;;16.58;3.85;;;11.60;96.30;;;;;;5009341;28;20078;-76
2023/05/29 04:45:52;;;;;;;16.92;2.95;;;11.80;96.40;;;;;;5019520;28;20517;-77
2023/05/29 04:48:18;;;;;;;18.30;3.53;;;11.80;95.80;;;;;;5026155;28;20057;-77
2023/05/29 04:50:44;;;;;;;16.27;3.60;;;12.00;96.10;;;;;;5008565;28;20021;-77
2023/05/29 04:53:10;;;;;;;18.70;3.55;;;12.10;96.40;;;;;;5025110;28;20699;-77
2023/05/29 04:55:36;;;;;;;13.95;2.97;;;12.30;96.90;;;;;;5008987;28;20485;-76
2023/05/29 04:58:02;;;;;;;22.25;4.32;;;12.40;96.20;;;;;;5007127;28;20083;-76
2023/05/29 05:00:27;;;;;;;9.40;2.60;;;12.60;96.50;;;;;;5019550;28;20624;-77
2023/05/29 05:02:53;;;;;;;14.13;3.63;;;12.80;95.60;;;;;;5007571;28;20087;-77
2023/05/29 05:05:18;;;;;;;18.75;3.58;;;12.90;95.10;;;;;;5026053;28;20735;-77
2023/05/29 05:07:44;;;;;;;15.57;3.90;;;13.00;95.50;;;;;;5006775;28;20057;-76
2023/05/29 05:10:10;;;;;;;13.63;3.10;;;13.20;95.10;;;;;;4999787;28;20108;-76
2023/05/29 05:12:36;;;;;;;13.68;3.97;;;13.40;94.90;;;;;;5008196;28;20426;-76
2023/05/29 05:15:02;;;;;;;22.45;2.60;;;13.50;94.70;;;;;;5024867;28;20026;-76
2023/05/29 05:17:27;;;;;;;16.73;3.95;;;13.60;94.40;;;;;;5003417;28;20478;-75
2023/05/29 05:19:53;;;;;;;19.40;3.33;;;13.80;94.00;;;;;;5025282;28;20030;-75
2023/05/29 05:22:19;;;;;;;17.27;3.58;;;13.90;93.90;;;;;;5024342;28;20037;-78
2023/05/29 05:24:44;;;;;;;16.58;3.03;;;14.10;93.20;;;;;;5008200;28;20044;-78
2023/05/29 05:27:10;;;;;;;14.27;3.05;;;14.20;92.50;;;;;;5023762;28;20052;-78
2023/05/29 05:29:36;;;;;;;19.17;4.20;;;14.40;92.10;;;;;;5024766;28;20108;-78
2023/05/29 05:32:01;;;;;;;11.38;3.30;;;14.50;92.10;;;;;;5024649;28;20026;-78
2023/05/29 05:34:27;;;;;;;14.68;3.08;;;14.60;91.70;;;;;;5024436;28;20053;-78
2023/05/29 05:36:52;;;;;;;15.50;3.00;;;14.70;91.10;;;;;;4998305;28;20037;-78
2023/05/29 05:39:19;;;;;;;17.83;2.55;;;14.90;91.20;;;;;;5005366;28;20021;-78
2023/05/29 05:41:44;;;;;;;14.95;3.03;;;15.00;91.10;;;;;;5003280;28;20043;-77
2023/05/29 05:44:10;;;;;;;17.63;3.70;;;15.30;90.90;;;;;;5022660;28;20045;-78
2023/05/29 05:46:35;;;;;;;11.80;2.55;;;15.50;90.50;;;;;;5007274;28;20033;-77
2023/05/29 05:49:01;;;;;;;13.70;2.92;;;15.70;90.20;;;;;;5023717;28;20063;-77
2023/05/29 05:51:27;;;;;;;15.65;3.53;;;15.80;89.50;;;;;;5020563;28;20021;-78
2023/05/29 05:53:52;;;;;;;15.70;3.83;;;15.90;88.60;;;;;;5007530;28;20048;-79
2023/05/29 05:56:18;;;;;;;14.98;3.35;;;16.30;86.10;;;;;;5024542;28;20124;-78
2023/05/29 05:58:44;;;;;;;8.40;2.55;;;16.30;85.20;;;;;;5020287;28;20041;-78
2023/05/29 06:01:10;;;;;;;14.85;2.65;;;16.40;85.80;;;;;;5007067;28;20053;-77
2023/05/29 06:03:37;;;;;;;13.27;3.05;;;16.60;84.80;;;;;;5022693;28;20033;-78
2023/05/29 06:06:03;;;;;;;13.80;3.17;;;16.70;83.20;;;;;;4999724;28;20485;-77
2023/05/29 06:08:29;;;;;;;16.00;4.28;;;16.80;83.70;;;;;;5023674;28;20084;-78
2023/05/29 06:10:55;;;;;;;14.32;3.17;;;17.10;83.30;;;;;;4991455;28;20076;-78
2023/05/29 06:13:20;;;;;;;12.10;2.30;;;17.20;81.70;;;;;;5003594;28;20056;-77
2023/05/29 06:15:46;;;;;;;10.75;2.60;;;17.20;81.30;;;;;;5018989;28;20057;-78
2023/05/29 06:18:12;;;;;;;9.60;2.92;;;17.30;81.80;;;;;;5007341;28;20485;-78
2023/05/29 06:20:38;;;;;;;14.73;3.30;;;17.50;81.60;;;;;;4991340;28;20076;-77
2023/05/29 06:23:03;;;;;;;14.35;3.17;;;17.60;80.30;;;;;;5006804;28;20037;-77
2023/05/29 06:25:33;;;;;;;17.45;4.00;;;17.70;79.20;;;;;;5023990;28;20060;-78
2023/05/29 06:28:01;;;;;;;13.75;3.20;;;17.90;78.10;;;;;;5006622;28;20041;-78
2023/05/29 06:30:27;;;;;;;12.68;3.40;;;17.90;77.80;;;;;;5005137;28;20116;-78
2023/05/29 06:32:52;;;;;;;12.00;3.10;;;18.00;77.20;;;;;;5007271;28;20149;-78
2023/05/29 06:35:18;;;;;;;11.98;2.80;;;18.10;76.90;;;;;;5024448;28;20037;-77
2023/05/29 06:37:45;;;;;;;11.93;3.30;;;18.20;77.00;;;;;;5006799;28;20026;-78
2023/05/29 06:40:12;;;;;;;10.38;2.50;;;18.40;76.40;;;;;;5005212;28;20643;-78
2023/05/29 06:42:37;;;;;;;13.75;2.88;;;18.50;75.80;;;;;;5023105;28;20132;-77
2023/05/29 06:45:03;;;;;;;13.82;3.00;;;18.60;75.50;;;;;;5005024;28;20120;-78
2023/05/29 06:47:28;;;;;;;13.57;3.35;;;18.80;76.20;;;;;;5004070;28;20037;-78
2023/05/29 06:49:54;;;;;;;11.73;2.75;;;19.00;75.20;;;;;;5017129;28;20040;-79
2023/05/29 06:52:20;;;;;;;11.77;3.13;;;19.30;74.80;;;;;;5007644;28;20401;-78
2023/05/29 06:54:45;;;;;;;17.95;3.70;;;19.50;74.10;;;;;;5004637;28;20972;-77
2023/05/29 06:57:11;;;;;;;14.68;3.28;;;19.50;72.10;;;;;;5022875;28;20487;-77
2023/05/29 06:59:36;;;;;;;10.68;2.70;;;19.70;72.20;;;;;;5003436;28;20500;-77
2023/05/29 07:02:02;;;;;;;12.60;3.03;;;19.70;72.40;;;;;;5022166;28;20503;-77
2023/05/29 07:04:27;;;;;;;15.10;3.45;;;20.00;72.20;;;;;;5038792;28;20029;-78
2023/05/29 07:06:53;;;;;;;11.85;3.00;;;20.20;71.20;;;;;;5020475;28;20037;-78
2023/05/29 07:09:18;;;;;;;14.02;3.35;;;20.30;69.70;;;;;;5023760;28;20037;-77
2023/05/29 07:11:44;;;;;;;14.02;3.08;;;20.20;70.50;;;;;;5004358;28;20033;-77
2023/05/29 07:14:09;;;;;;;13.75;3.65;;;20.30;70.30;;;;;;5023069;28;20141;-77
2023/05/29 07:16:35;;;;;;;10.20;3.13;;;20.50;70.20;;;;;;5022041;28;20037;-77
2023/05/29 07:19:01;;;;;;;9.00;3.13;;;20.70;68.60;;;;;;5006172;28;20044;-77
2023/05/29 07:21:26;;;;;;;12.30;3.42;;;20.60;67.50;;;;;;5004877;28;20370;-77
2023/05/29 07:23:52;;;;;;;10.80;2.60;;;20.50;67.90;;;;;;5023525;28;21006;-77
2023/05/29 07:26:17;;;;;;;19.27;3.67;;;20.70;68.50;;;;;;5006126;28;20051;-77
2023/05/29 07:28:43;;;;;;;11.27;3.33;;;20.90;68.40;;;;;;5000598;28;20034;-77
2023/05/29 07:31:08;;;;;;;10.98;3.78;;;21.00;66.80;;;;;;5022255;28;20224;-77
2023/05/29 07:33:34;;;;;;;8.18;3.00;;;21.10;67.40;;;;;;5022368;28;20420;-77
2023/05/29 07:36:00;;;;;;;9.27;2.90;;;21.30;67.00;;;;;;5019385;28;20026;-78
2023/05/29 07:38:26;;;;;;;12.85;2.83;;;21.40;67.00;;;;;;5019119;28;20030;-78
2023/05/29 07:40:51;;;;;;;11.48;2.78;;;21.60;65.90;;;;;;5005388;28;20092;-78
2023/05/29 07:43:17;;;;;;;8.70;3.08;;;21.60;65.70;;;;;;5004476;28;20045;-77
2023/05/29 07:45:42;;;;;;;8.85;3.50;;;21.70;66.40;;;;;;5021385;28;20083;-77
2023/05/29 07:48:08;;;;;;;13.27;3.88;;;21.90;65.80;;;;;;5005504;28;20029;-77
2023/05/29 07:50:33;;;;;;;14.65;3.70;;;22.10;65.00;;;;;;5022357;28;20089;-77
2023/05/29 07:53:00;;;;;;;11.07;2.97;;;22.00;64.40;;;;;;5001149;28;20179;-77
2023/05/29 07:55:25;;;;;;;8.45;2.65;;;22.10;64.00;;;;;;5005548;28;20465;-77
2023/05/29 07:57:51;;;;;;;7.65;2.25;;;22.20;63.60;;;;;;5020259;28;20061;-76
2023/05/29 08:00:18;;;;;;;10.95;2.97;;;22.20;64.80;;;;;;5005605;28;20041;-77
2023/05/29 08:02:43;;;;;;;11.38;3.15;;;22.30;65.30;;;;;;5035629;28;20513;-76
2023/05/29 08:05:09;;;;;;;9.82;2.92;;;22.60;63.30;;;;;;5005553;28;20088;-77
2023/05/29 08:07:36;;;;;;;13.07;3.58;;;22.70;64.40;;;;;;5002561;28;20402;-76
2023/05/29 08:10:01;;;;;;;14.13;3.10;;;22.60;63.50;;;;;;5001830;28;20037;-76
2023/05/29 08:12:27;;;;;;;15.48;3.10;;;22.80;62.90;;;;;;5021263;28;20040;-77
2023/05/29 08:14:53;;;;;;;10.50;2.72;;;22.90;61.80;;;;;;4989936;28;20032;-76
2023/05/29 08:17:19;;;;;;;13.98;3.58;;;23.00;61.40;;;;;;5022035;28;20057;-76
2023/05/29 08:19:45;;;;;;;9.00;3.25;;;23.00;60.50;;;;;;5009382;28;20125;-76
2023/05/29 08:22:12;;;;;;;9.45;2.90;;;23.10;60.30;;;;;;5007353;28;20741;-76
2023/05/29 08:24:38;;;;;;;10.25;3.25;;;23.20;61.40;;;;;;5023180;28;20033;-75
2023/05/29 08:27:04;;;;;;;13.95;2.78;;;23.30;60.90;;;;;;5003146;28;20237;-76
2023/05/29 08:29:29;;;;;;;7.82;2.85;;;23.40;60.80;;;;;;5009433;28;20370;-78
2023/05/29 08:31:55;;;;;;;12.30;3.00;;;23.40;61.20;;;;;;5025549;28;20099;-76
2023/05/29 08:34:20;;;;;;;11.30;3.30;;;23.50;61.40;;;;;;5025552;28;20044;-78
2023/05/29 08:36:46;;;;;;;7.22;2.55;;;23.70;61.10;;;;;;5017644;28;20393;-77
2023/05/29 08:39:12;;;;;;;17.33;3.65;;;23.90;60.90;;;;;;5025311;28;20030;-76
2023/05/29 08:42:07;;;;;;;11.43;3.78;;;24.00;60.10;;;;;;5008454;28;20071;-78
2023/05/29 08:44:32;;;;;;;10.13;3.38;;;24.10;59.40;;;;;;5007178;28;20029;-78
2023/05/29 08:47:00;;;;;;;14.63;2.92;;;24.00;60.40;;;;;;5024628;28;20496;-76
2023/05/29 08:49:27;;;;;;;12.40;2.50;;;24.30;59.20;;;;;;5002922;28;20049;-77
2023/05/29 08:52:02;;;;;;;12.25;3.35;;;24.70;58.00;;;;;;4993524;28;20091;-78
2023/05/29 08:54:30;;;;;;;12.82;3.00;;;24.50;58.90;;;;;;4993355;28;20032;-78
2023/05/29 08:56:58;;;;;;;16.80;3.97;;;24.80;59.60;;;;;;5024666;28;20029;-76
2023/05/29 08:59:23;;;;;;;14.70;3.10;;;24.80;59.20;;;;;;5006582;28;20044;-76
2023/05/29 09:01:49;;;;;;;11.15;3.58;;;24.70;59.80;;;;;;5006114;28;20025;-76
2023/05/29 09:04:15;;;;;;;11.20;2.55;;;25.10;58.80;;;;;;5024942;28;20029;-79
2023/05/29 09:06:41;;;;;;;12.35;3.28;;;25.00;58.00;;;;;;5008066;28;20099;-79
2023/05/29 09:09:06;;;;;;;9.38;2.70;;;25.20;58.80;;;;;;5007400;28;20053;-77
2023/05/29 09:11:32;;;;;;;14.13;3.70;;;25.40;57.60;;;;;;5023893;28;20053;-78
2023/05/29 09:13:59;;;;;;;9.18;2.95;;;25.40;57.30;;;;;;5022889;28;20041;-77
2023/05/29 09:16:25;;;;;;;11.55;3.20;;;25.30;57.70;;;;;;5021673;28;20057;-78
2023/05/29 09:18:50;;;;;;;13.60;3.33;;;25.40;57.50;;;;;;5008964;28;20536;-78
2023/05/29 09:21:26;;;;;;;12.48;3.55;;;25.80;57.20;;;;;;5024670;28;20104;-77
2023/05/29 09:23:54;;;;;;;18.75;3.42;;;25.90;56.90;;;;;;5024907;28;20781;-78
2023/05/29 09:26:21;;;;;;;29.20;5.40;;;26.00;55.60;;;;;;5025300;28;20030;-78
2023/05/29 09:28:47;;;;;;;21.58;3.72;;;25.80;56.00;;;;;;5021391;28;20029;-78
2023/05/29 09:31:15;;;;;;;19.77;4.40;;;25.80;55.70;;;;;;5006784;28;20087;-78
2023/05/29 09:33:48;;;;;;;13.23;3.20;;;25.80;55.80;;;;;;5009217;28;20083;-78
2023/05/29 09:36:20;;;;;;;21.50;3.83;;;26.00;55.40;;;;;;5025542;28;20029;-77
2023/05/29 09:38:46;;;;;;;12.77;2.35;;;25.90;54.80;;;;;;5005023;28;20034;-78
2023/05/29 09:41:12;;;;;;;16.27;3.63;;;25.80;56.60;;;;;;5023876;28;20401;-78
2023/05/29 09:43:39;;;;;;;9.93;3.55;;;26.20;55.90;;;;;;5008804;28;20092;-78
2023/05/29 09:46:06;;;;;;;11.52;3.15;;;26.10;55.70;;;;;;5003636;28;20600;-78
2023/05/29 09:48:32;;;;;;;12.70;3.38;;;26.30;55.10;;;;;;5022890;28;20032;-78
2023/05/29 09:50:58;;;;;;;11.05;3.00;;;26.30;54.20;;;;;;5022497;28;20460;-78
2023/05/29 09:53:24;;;;;;;11.85;3.70;;;26.30;54.20;;;;;;5022886;28;20036;-78
2023/05/29 09:55:50;;;;;;;12.98;3.85;;;26.10;52.90;;;;;;5023822;28;20509;-78
2023/05/29 09:58:19;;;;;;;12.40;4.25;;;26.20;52.90;;;;;;5005708;28;20061;-78
2023/05/29 10:00:45;;;;;;;7.03;2.95;;;26.10;53.10;;;;;;4998444;28;20032;-78
2023/05/29 10:03:12;;;;;;;10.38;2.60;;;26.10;54.30;;;;;;5007214;28;20068;-77
2023/05/29 10:05:39;;;;;;;8.10;2.78;;;26.40;53.90;;;;;;5007388;28;20072;-79
2023/05/29 10:08:05;;;;;;;8.52;3.05;;;26.40;53.50;;;;;;5004399;28;20084;-78
2023/05/29 10:10:30;;;;;;;17.40;4.13;;;26.30;54.10;;;;;;5006412;28;20033;-78
2023/05/29 10:12:56;;;;;;;13.55;3.05;;;26.50;53.40;;;;;;5002413;28;20033;-79
2023/05/29 10:15:23;;;;;;;26.77;5.97;;;26.60;54.10;;;;;;5006472;28;20513;-78
2023/05/29 10:17:59;;;;;;;12.93;3.38;;;26.70;54.70;;;;;;4996084;28;20134;-78
2023/05/29 10:20:25;;;;;;;11.40;2.85;;;27.00;53.50;;;;;;4998571;28;20032;-78
2023/05/29 10:22:51;;;;;;;11.20;3.65;;;27.00;53.30;;;;;;5019519;28;20661;-78
2023/05/29 10:25:21;;;;;;;13.32;3.13;;;26.90;52.60;;;;;;5000930;28;20091;-78
2023/05/29 10:27:47;;;;;;;15.73;3.55;;;27.10;53.10;;;;;;5007124;28;20026;-78
2023/05/29 10:30:27;;;;;;;12.43;3.45;;;27.30;52.90;;;;;;5022793;28;20033;-78
2023/05/29 10:33:16;;;;;;;9.50;2.80;;;27.10;53.00;;;;;;5023366;28;20030;-78
2023/05/29 10:35:51;;;;;;;12.93;3.17;;;27.50;52.60;;;;;;5005410;28;20512;-78
2023/05/29 10:38:18;;;;;;;8.20;3.08;;;27.60;52.70;;;;;;5017746;28;20091;-78
2023/05/29 10:40:44;;;;;;;22.67;3.42;;;27.80;51.90;;;;;;5006057;28;20359;-78
2023/05/29 10:43:29;;;;;;;8.95;3.30;;;27.80;50.70;;;;;;5005869;28;20071;-78
2023/05/29 10:45:55;;;;;;;13.68;3.47;;;27.70;50.70;;;;;;5013959;28;20033;-77
2023/05/29 10:48:28;;;;;;;17.63;3.40;;;27.60;51.70;;;;;;5004220;28;20489;-79
2023/05/29 10:50:54;;;;;;;8.27;2.85;;;27.80;52.10;;;;;;5021603;28;20033;-78
2023/05/29 10:53:26;;;;;;;11.52;3.55;;;27.90;51.10;;;;;;5005511;28;20087;-77
2023/05/29 10:55:52;;;;;;;10.18;2.90;;;28.20;50.90;;;;;;5004561;28;20604;-78
2023/05/29 10:58:19;;;;;;;12.00;2.97;;;28.20;51.40;;;;;;5002980;28;20041;-78
2023/05/29 11:00:48;;;;;;;9.20;3.10;;;28.20;51.70;;;;;;5020091;28;20041;-77
2023/05/29 11:03:31;;;;;;;12.15;3.05;;;28.30;50.70;;;;;;4979998;28;20029;-77
2023/05/29 11:06:01;;;;;;;9.32;2.70;;;28.40;51.30;;;;;;5005793;28;20035;-77
2023/05/29 11:08:39;;;;;;;8.73;3.17;;;28.40;51.00;;;;;;5002317;28;20037;-77
2023/05/29 11:11:08;;;;;;;9.43;2.85;;;28.60;50.90;;;;;;5003855;28;20108;-77
2023/05/29 11:13:34;;;;;;;7.78;3.05;;;28.70;50.40;;;;;;5007577;28;20025;-78
2023/05/29 11:16:14;;;;;;;11.85;2.67;;;28.70;50.50;;;;;;5022299;28;20037;-78
2023/05/29 11:18:46;;;;;;;13.18;3.33;;;28.70;50.20;;;;;;4995812;28;20490;-78
2023/05/29 11:21:32;;;;;;;7.07;2.40;;;28.80;49.40;;;;;;5022839;28;20037;-77
2023/05/29 11:23:58;;;;;;;8.35;3.10;;;28.90;50.20;;;;;;5024830;28;20036;-77
2023/05/29 11:26:28;;;;;;;11.20;2.97;;;28.80;49.00;;;;;;5001459;28;20026;-78
2023/05/29 11:28:56;;;;;;;11.40;2.47;;;28.70;50.30;;;;;;5019198;28;20108;-77
2023/05/29 11:31:22;;;;;;;11.60;3.70;;;29.00;49.60;;;;;;5022735;28;20037;-77
2023/05/29 11:33:51;;;;;;;6.40;2.83;;;28.90;49.90;;;;;;5004715;28;20036;-77
2023/05/29 11:36:19;;;;;;;10.27;2.75;;;28.70;48.40;;;;;;4990853;28;20036;-77
2023/05/29 11:38:44;;;;;;;7.90;3.00;;;29.10;48.90;;;;;;5023048;28;20026;-77
2023/05/29 11:41:10;;;;;;;8.52;2.72;;;29.30;48.30;;;;;;5022240;28;20782;-77
2023/05/29 11:43:35;;;;;;;9.25;2.67;;;29.20;49.30;;;;;;5005242;28;20034;-77
2023/05/29 11:46:02;;;;;;;13.77;3.42;;;29.10;49.70;;;;;;5006949;28;20063;-77
2023/05/29 11:48:27;;;;;;;6.82;2.83;;;29.20;48.90;;;;;;5006624;28;20401;-77
2023/05/29 11:50:53;;;;;;;13.27;3.58;;;29.50;48.10;;;;;;5002999;28;20113;-77
2023/05/29 11:53:19;;;;;;;11.88;3.83;;;29.50;47.90;;;;;;5026888;28;20030;-77
2023/05/29 11:55:44;;;;;;;13.52;2.83;;;29.20;47.50;;;;;;4988565;28;20083;-77
2023/05/29 11:58:10;;;;;;;9.45;2.90;;;29.10;48.50;;;;;;5023331;28;20109;-77
2023/05/29 12:00:36;;;;;;;7.75;3.25;;;29.30;48.30;;;;;;5007631;28;20041;-78
2023/05/29 12:03:03;;;;;;;11.35;3.05;;;29.40;47.40;;;;;;4987442;28;20145;-77
2023/05/29 12:05:29;;;;;;;9.25;2.55;;;29.50;48.10;;;;;;4998523;28;20061;-77
2023/05/29 12:08:00;;;;;;;8.95;2.63;;;29.50;48.70;;;;;;5000526;28;20112;-76
2023/05/29 12:10:26;;;;;;;6.35;2.83;;;29.70;48.70;;;;;;5009624;28;20033;-77
2023/05/29 12:12:55;;;;;;;10.13;2.47;;;29.70;49.30;;;;;;5024310;28;20084;-76
2023/05/29 12:15:21;;;;;;;6.85;2.13;;;30.00;48.00;;;;;;5018095;28;20039;-77
2023/05/29 12:17:48;;;;;;;5.53;2.45;;;29.90;48.20;;;;;;5024209;28;20025;-77
2023/05/29 12:20:14;;;;;;;10.45;3.00;;;30.20;46.90;;;;;;5026747;28;20034;-76
2023/05/29 12:22:40;;;;;;;7.38;2.40;;;30.00;47.50;;;;;;5009473;28;20487;-76
2023/05/29 12:25:17;;;;;;;7.45;2.40;;;30.00;47.90;;;;;;4986990;28;20037;-76
2023/05/29 12:27:46;;;;;;;5.32;2.70;;;30.20;47.80;;;;;;5009991;28;20043;-76
2023/05/29 12:30:21;;;;;;;10.30;2.70;;;30.30;48.10;;;;;;5009628;28;20053;-75
2023/05/29 12:32:51;;;;;;;7.28;2.88;;;30.50;47.60;;;;;;5024980;28;20084;-76
2023/05/29 12:35:21;;;;;;;6.82;2.55;;;30.60;46.10;;;;;;5023914;28;20747;-75
2023/05/29 12:37:50;;;;;;;10.77;2.78;;;30.60;46.60;;;;;;5004916;28;20460;-76
2023/05/29 12:40:19;;;;;;;8.13;2.25;;;30.70;46.60;;;;;;5022440;28;20048;-75